createdAt,value
2018-05-02T00:01:45.940Z,59.20
2018-05-02T00:04:13.412Z,59.30
2018-05-02T00:06:41.669Z,59.30
2018-05-02T00:09:09.138Z,59.20
2018-05-02T00:11:36.599Z,59.30
2018-05-02T00:14:04.101Z,59.40
2018-05-02T00:16:31.563Z,59.60
2018-05-02T00:18:59.044Z,59.60
2018-05-02T00:21:26.519Z,59.70
2018-05-02T00:23:53.991Z,59.80
2018-05-02T00:26:22.264Z,60.10
2018-05-02T00:28:49.760Z,60.00
2018-05-02T00:31:17.325Z,60.00
2018-05-02T00:33:44.783Z,60.10
2018-05-02T00:36:12.247Z,60.10
2018-05-02T00:38:39.767Z,60.10
2018-05-02T00:41:08.019Z,60.40
2018-05-02T00:43:35.531Z,60.30
2018-05-02T00:46:02.995Z,60.40
2018-05-02T00:48:30.473Z,61.00
2018-05-02T00:50:58.000Z,60.30
2018-05-02T00:53:25.494Z,60.50
2018-05-02T00:55:58.142Z,60.50
2018-05-02T00:58:25.621Z,60.60
2018-05-02T01:00:53.103Z,60.70
2018-05-02T01:03:20.608Z,61.00
2018-05-02T01:05:48.093Z,61.00
2018-05-02T01:08:16.112Z,61.10
2018-05-02T01:10:43.584Z,61.30
2018-05-02T01:13:11.063Z,61.50
2018-05-02T01:15:38.543Z,61.50
2018-05-02T01:18:06.028Z,61.70
2018-05-02T01:20:34.258Z,61.90
2018-05-02T01:23:01.741Z,61.90
2018-05-02T01:25:29.459Z,61.90
2018-05-02T01:27:56.944Z,61.90
2018-05-02T01:30:24.419Z,61.90
2018-05-02T01:32:51.931Z,61.90
2018-05-02T01:35:19.403Z,62.00
2018-05-02T01:37:46.878Z,62.10
2018-05-02T01:40:14.367Z,62.20
2018-05-02T01:42:42.612Z,62.40
2018-05-02T01:45:15.327Z,62.20
2018-05-02T01:47:42.799Z,62.40
2018-05-02T01:50:10.978Z,62.30
2018-05-02T01:52:38.454Z,62.40
2018-05-02T01:55:05.919Z,62.50
2018-05-02T01:57:33.477Z,62.60
2018-05-02T02:00:00.942Z,62.70
2018-05-02T02:02:28.419Z,62.80
2018-05-02T02:04:55.943Z,62.80
2018-05-02T02:07:23.419Z,62.80
2018-05-02T02:09:50.904Z,62.60
2018-05-02T02:12:18.712Z,62.60
2018-05-02T02:14:46.203Z,62.70
2018-05-02T02:17:13.699Z,62.20
2018-05-02T02:19:41.192Z,62.20
2018-05-02T02:22:08.676Z,61.80
2018-05-02T02:24:36.144Z,61.70
2018-05-02T02:27:03.626Z,61.40
2018-05-02T02:29:31.867Z,61.00
2018-05-02T02:31:59.340Z,61.00
2018-05-02T02:34:26.878Z,60.90
2018-05-02T02:36:54.359Z,60.80
2018-05-02T02:39:21.833Z,60.70
2018-05-02T02:41:50.080Z,60.70
2018-05-02T02:44:18.375Z,60.70
2018-05-02T02:46:55.836Z,60.60
2018-05-02T02:49:23.319Z,60.70
2018-05-02T02:51:50.807Z,60.60
2018-05-02T02:54:18.295Z,60.40
2018-05-02T02:56:45.766Z,60.40
2018-05-02T02:59:13.242Z,60.50
2018-05-02T03:01:40.709Z,60.50
2018-05-02T03:04:08.209Z,60.50
2018-05-02T03:06:35.818Z,60.30
2018-05-02T03:09:03.283Z,60.10
2018-05-02T03:11:30.775Z,59.80
2018-05-02T03:13:58.271Z,59.60
2018-05-02T03:16:40.372Z,59.40
2018-05-02T03:19:07.830Z,59.30
2018-05-02T03:21:35.303Z,59.00
2018-05-02T03:24:03.028Z,58.50
2018-05-02T03:26:35.411Z,58.20
2018-05-02T03:29:03.040Z,57.90
2018-05-02T03:31:30.506Z,57.60
2018-05-02T03:33:57.990Z,57.60
2018-05-02T03:36:35.703Z,57.40
2018-05-02T03:39:03.167Z,57.30
2018-05-02T03:41:30.646Z,57.40
2018-05-02T03:43:58.915Z,58.00
2018-05-02T03:46:26.381Z,57.50
2018-05-02T03:48:54.619Z,57.80
2018-05-02T03:51:22.101Z,57.70
2018-05-02T03:53:49.736Z,57.80
2018-05-02T03:56:17.331Z,58.10
2018-05-02T03:58:45.575Z,58.40
2018-05-02T04:01:24.740Z,58.30
2018-05-02T04:04:04.087Z,58.50
2018-05-02T04:06:54.062Z,58.90
2018-05-02T04:09:21.535Z,58.90
2018-05-02T04:11:49.028Z,59.10
2018-05-02T04:14:17.397Z,59.20
2018-05-02T04:16:44.856Z,59.10
2018-05-02T04:19:12.326Z,59.10
2018-05-02T04:21:39.796Z,59.10
2018-05-02T04:24:07.287Z,59.20
2018-05-02T04:26:35.515Z,59.00
2018-05-02T04:29:03.003Z,58.90
2018-05-02T04:31:31.307Z,58.90
2018-05-02T04:33:58.797Z,58.80
2018-05-02T04:36:31.636Z,59.00
2018-05-02T04:39:00.298Z,59.10
2018-05-02T04:41:27.783Z,59.10
2018-05-02T04:43:56.040Z,59.20
2018-05-02T04:46:28.683Z,59.20
2018-05-02T04:48:56.415Z,59.20
2018-05-02T04:51:23.895Z,59.10
2018-05-02T04:53:51.583Z,59.00
2018-05-02T04:56:19.055Z,58.90
2018-05-02T04:58:47.765Z,59.00
2018-05-02T05:01:15.317Z,59.00
2018-05-02T05:03:43.344Z,59.00
2018-05-02T05:06:10.831Z,59.00
2018-05-02T05:08:39.012Z,59.00
2018-05-02T05:11:16.763Z,58.90
2018-05-02T05:13:44.815Z,58.90
2018-05-02T05:16:12.956Z,58.90
2018-05-02T05:18:40.424Z,58.90
2018-05-02T05:21:08.717Z,59.00
2018-05-02T05:23:36.192Z,58.90
2018-05-02T05:26:03.670Z,58.80
2018-05-02T05:28:31.163Z,58.70
2018-05-02T05:30:59.405Z,58.90
2018-05-02T05:33:27.446Z,58.80
2018-05-02T05:36:00.576Z,58.50
2018-05-02T05:38:28.084Z,58.60
2018-05-02T05:40:57.154Z,58.50
2018-05-02T05:43:25.648Z,58.30
2018-05-02T05:45:53.976Z,57.90
2018-05-02T05:48:22.246Z,57.80
2018-05-02T05:50:49.800Z,57.30
2018-05-02T05:53:18.007Z,56.90
2018-05-02T05:55:50.806Z,56.70
2018-05-02T05:58:19.047Z,56.30
2018-05-02T06:00:46.578Z,56.10
2018-05-02T06:03:14.011Z,55.60
2018-05-02T06:05:41.485Z,55.40
2018-05-02T06:08:08.980Z,55.40
2018-05-02T06:10:36.486Z,55.40
2018-05-02T06:13:04.808Z,55.30
2018-05-02T06:15:43.557Z,55.30
2018-05-02T06:18:11.710Z,55.30
2018-05-02T06:20:41.868Z,55.70
2018-05-02T06:23:09.423Z,55.50
2018-05-02T06:25:37.671Z,55.80
2018-05-02T06:28:05.148Z,55.70
2018-05-02T06:30:32.683Z,55.70
2018-05-02T06:33:00.176Z,55.80
2018-05-02T06:35:28.486Z,55.80
2018-05-02T06:37:56.005Z,55.70
2018-05-02T06:40:23.792Z,55.60
2018-05-02T06:42:59.308Z,55.30
2018-05-02T06:45:26.858Z,55.00
2018-05-02T06:47:54.651Z,54.80
2018-05-02T06:50:22.254Z,54.40
2018-05-02T06:52:49.664Z,53.80
2018-05-02T06:55:17.436Z,53.60
2018-05-02T06:57:44.963Z,53.50
2018-05-02T07:00:12.488Z,53.20
2018-05-02T07:02:40.000Z,53.00
2018-05-02T07:05:08.248Z,51.80
2018-05-02T07:07:35.744Z,51.70
2018-05-02T07:10:03.267Z,51.50
2018-05-02T07:12:30.971Z,51.40
2018-05-02T07:14:58.495Z,51.30
2018-05-02T07:17:25.967Z,51.10
2018-05-02T07:19:53.507Z,50.60
2018-05-02T07:22:21.049Z,50.30
2018-05-02T07:24:48.551Z,50.20
2018-05-02T07:27:17.669Z,49.60
2018-05-02T07:29:45.952Z,49.50
2018-05-02T07:32:13.446Z,49.00
2018-05-02T07:34:41.161Z,48.80
2018-05-02T07:37:08.641Z,48.70
2018-05-02T07:39:36.378Z,48.50
2018-05-02T07:42:03.901Z,48.30
2018-05-02T07:44:33.937Z,47.90
2018-05-02T07:47:02.199Z,47.60
2018-05-02T07:49:30.583Z,47.50
2018-05-02T07:51:59.019Z,47.20
2018-05-02T07:54:26.520Z,46.60
2018-05-02T07:56:54.005Z,45.80
2018-05-02T07:59:21.659Z,45.40
2018-05-02T08:01:49.191Z,45.50
2018-05-02T08:04:16.753Z,45.20
2018-05-02T08:06:44.248Z,44.90
2018-05-02T08:09:11.821Z,44.80
2018-05-02T08:11:39.231Z,44.50
2018-05-02T08:14:06.713Z,44.50
2018-05-02T08:16:39.102Z,44.40
2018-05-02T08:19:07.344Z,45.10
2018-05-02T08:21:35.505Z,45.00
2018-05-02T08:24:03.004Z,44.80
2018-05-02T08:26:30.512Z,44.50
2018-05-02T08:28:57.999Z,44.20
2018-05-02T08:31:25.513Z,43.80
2018-05-02T08:33:53.308Z,43.00
2018-05-02T08:36:22.218Z,42.00
2018-05-02T08:38:50.415Z,42.00
2018-05-02T08:41:17.909Z,41.20
2018-05-02T08:43:45.475Z,40.10
2018-05-02T08:46:12.951Z,40.80
2018-05-02T08:48:42.982Z,41.20
2018-05-02T08:51:10.484Z,41.10
2018-05-02T08:53:38.189Z,41.20
2018-05-02T08:56:05.880Z,41.60
2018-05-02T08:58:33.595Z,41.60
2018-05-02T09:01:01.922Z,41.40
2018-05-02T09:03:30.214Z,41.10
2018-05-02T09:05:57.684Z,40.40
2018-05-02T09:08:25.312Z,39.80
2018-05-02T09:10:52.817Z,39.30
2018-05-02T09:13:21.002Z,38.60
2018-05-02T09:15:48.603Z,38.40
2018-05-02T09:18:16.863Z,38.00
2018-05-02T09:20:44.599Z,38.00
2018-05-02T09:23:12.091Z,37.80
2018-05-02T09:25:40.009Z,36.90
2018-05-02T09:28:10.392Z,36.80
2018-05-02T09:30:38.096Z,36.60
2018-05-02T09:33:05.815Z,36.30
2018-05-02T09:35:36.361Z,36.40
2018-05-02T09:38:04.492Z,35.90
2018-05-02T09:40:33.579Z,34.80
2018-05-02T09:43:01.839Z,33.80
2018-05-02T09:45:30.106Z,33.30
2018-05-02T09:47:59.347Z,31.80
2018-05-02T09:50:28.275Z,31.30
2018-05-02T09:52:56.852Z,30.30
2018-05-02T09:55:31.382Z,29.70
2018-05-02T09:57:58.994Z,29.30
2018-05-02T10:00:30.321Z,29.60
2018-05-02T10:05:33.172Z,29.50
2018-05-02T10:08:00.746Z,28.50
2018-05-02T10:10:28.252Z,28.20
2018-05-02T10:12:57.626Z,27.90
2018-05-02T10:15:35.934Z,27.80
2018-05-02T10:18:06.486Z,26.70
2018-05-02T10:20:34.839Z,26.10
2018-05-02T10:23:02.655Z,25.80
2018-05-02T10:25:32.203Z,25.60
2018-05-02T10:28:00.131Z,25.90
2018-05-02T10:30:28.367Z,26.10
2018-05-02T10:32:56.435Z,25.50
2018-05-02T10:35:24.148Z,25.40
2018-05-02T10:37:51.862Z,25.60
2018-05-02T10:40:19.921Z,26.00
2018-05-02T10:42:47.847Z,26.30
2018-05-02T10:45:17.048Z,26.60
2018-05-02T10:47:45.690Z,26.20
2018-05-02T10:50:13.192Z,25.60
2018-05-02T10:52:41.081Z,25.00
2018-05-02T10:55:08.605Z,25.00
2018-05-02T10:57:36.092Z,24.20
2018-05-02T11:00:05.615Z,24.00
2018-05-02T11:02:36.233Z,23.70
2018-05-02T11:05:04.869Z,23.70
2018-05-02T11:07:35.264Z,23.60
2018-05-02T11:10:03.017Z,23.90
2018-05-02T11:12:31.147Z,24.20
2018-05-02T11:14:58.669Z,24.10
2018-05-02T11:17:26.245Z,23.90
2018-05-02T11:19:54.580Z,23.50
2018-05-02T11:22:24.862Z,21.60
2018-05-02T11:24:53.191Z,21.40
2018-05-02T11:27:20.729Z,21.30
2018-05-02T11:29:49.462Z,21.00
2018-05-02T11:32:16.973Z,20.70
2018-05-02T11:34:45.557Z,21.40
2018-05-02T11:37:24.722Z,22.20
2018-05-02T11:39:53.334Z,22.60
2018-05-02T11:42:22.436Z,22.70
2018-05-02T11:44:51.474Z,22.90
2018-05-02T11:47:21.491Z,22.50
2018-05-02T11:49:49.659Z,22.60
2018-05-02T11:52:23.219Z,22.30
2018-05-02T11:54:53.242Z,22.30
2018-05-02T11:57:20.778Z,22.20
2018-05-02T11:59:49.787Z,22.00
2018-05-02T12:02:19.013Z,21.90
2018-05-02T12:04:49.902Z,21.80
2018-05-02T12:07:58.159Z,21.40
2018-05-02T12:10:26.592Z,21.90
2018-05-02T12:12:54.037Z,22.10
2018-05-02T12:17:57.155Z,22.20
2018-05-02T12:20:25.443Z,22.30
2018-05-02T12:22:54.187Z,22.20
2018-05-02T12:25:32.670Z,22.80
2018-05-02T12:28:01.055Z,23.30
2018-05-02T12:30:30.308Z,23.30
2018-05-02T12:32:58.904Z,22.70
2018-05-02T12:35:29.020Z,22.80
2018-05-02T12:37:57.372Z,22.60
2018-05-02T12:40:27.245Z,22.40
2018-05-02T12:42:55.050Z,21.70
2018-05-02T12:45:23.952Z,21.90
2018-05-02T12:47:51.673Z,22.50
2018-05-02T12:50:19.932Z,22.70
2018-05-02T12:52:49.712Z,22.20
2018-05-02T12:55:17.283Z,21.70
2018-05-02T12:57:45.315Z,21.50
2018-05-02T13:00:13.800Z,21.90
2018-05-02T13:02:41.976Z,21.80
2018-05-02T13:05:09.685Z,21.30
2018-05-02T13:07:38.272Z,21.10
2018-05-02T13:10:06.255Z,21.10
2018-05-02T13:12:36.335Z,20.90
2018-05-02T13:15:06.904Z,20.90
2018-05-02T13:17:34.494Z,21.30
2018-05-02T13:20:02.885Z,21.30
2018-05-02T13:22:31.335Z,21.20
2018-05-02T13:25:01.168Z,21.20
2018-05-02T13:27:29.604Z,21.20
2018-05-02T13:29:58.743Z,21.30
2018-05-02T13:32:26.589Z,21.30
2018-05-02T13:37:27.508Z,21.70
2018-05-02T13:42:29.336Z,21.50
2018-05-02T13:44:57.450Z,21.60
2018-05-02T13:47:25.028Z,21.40
2018-05-02T13:49:52.498Z,21.60
2018-05-02T13:52:21.119Z,22.00
2018-05-02T13:54:48.668Z,22.30
2018-05-02T13:57:20.210Z,22.70
2018-05-02T13:59:49.797Z,22.70
2018-05-02T14:02:18.228Z,22.30
2018-05-02T14:04:46.460Z,22.30
2018-05-02T14:07:18.260Z,22.40
2018-05-02T14:09:47.956Z,22.30
2018-05-02T14:12:15.727Z,22.20
2018-05-02T14:14:49.194Z,22.50
2018-05-02T14:17:18.243Z,22.90
2018-05-02T14:19:50.717Z,23.10
2018-05-02T14:22:19.024Z,23.20
2018-05-02T14:24:47.126Z,23.20
2018-05-02T14:27:40.208Z,23.30
2018-05-02T14:30:08.193Z,23.20
2018-05-02T14:32:36.164Z,23.20
2018-05-02T14:37:37.626Z,23.70
2018-05-02T14:40:05.184Z,23.10
2018-05-02T14:42:34.554Z,23.00
2018-05-02T14:45:04.217Z,22.60
2018-05-02T14:47:32.006Z,22.20
2018-05-02T14:50:02.677Z,21.90
2018-05-02T14:52:31.208Z,21.40
2018-05-02T14:55:02.177Z,21.30
2018-05-02T15:00:04.428Z,20.00
2018-05-02T15:02:32.194Z,19.40
2018-05-02T15:04:59.715Z,20.10
2018-05-02T15:07:28.336Z,20.10
2018-05-02T15:09:57.853Z,20.10
2018-05-02T15:12:26.508Z,20.00
2018-05-02T15:14:54.823Z,19.70
2018-05-02T15:17:22.396Z,19.70
2018-05-02T15:19:49.866Z,19.50
2018-05-02T15:22:17.379Z,19.70
2018-05-02T15:24:45.249Z,19.90
2018-05-02T15:27:12.623Z,19.90
2018-05-02T15:29:40.318Z,19.50
2018-05-02T15:32:08.713Z,19.40
2018-05-02T15:34:39.509Z,19.60
2018-05-02T15:37:10.207Z,19.60
2018-05-02T15:39:38.949Z,19.90
2018-05-02T15:42:06.774Z,19.80
2018-05-02T15:44:35.149Z,20.00
2018-05-02T15:47:02.631Z,20.20
2018-05-02T15:49:31.465Z,20.50
2018-05-02T15:51:59.410Z,20.90
2018-05-02T15:54:30.889Z,20.80
2018-05-02T15:59:34.384Z,20.30
2018-05-02T16:02:02.613Z,20.40
2018-05-02T16:04:33.484Z,20.40
2018-05-02T16:07:19.311Z,20.40
2018-05-02T16:12:19.227Z,20.30
2018-05-02T16:14:48.455Z,20.50
2018-05-02T16:17:16.009Z,20.50
2018-05-02T16:19:44.333Z,20.80
2018-05-02T16:22:11.895Z,20.80
2018-05-02T16:24:40.310Z,21.70
2018-05-02T16:27:08.604Z,21.70
2018-05-02T16:29:37.660Z,22.10
2018-05-02T16:32:05.958Z,22.40
2018-05-02T16:34:33.504Z,22.80
2018-05-02T16:37:07.213Z,23.30
2018-05-02T16:39:35.787Z,23.70
2018-05-02T16:42:04.195Z,24.00
2018-05-02T16:44:32.923Z,24.10
2018-05-02T16:47:00.984Z,24.30
2018-05-02T16:49:30.377Z,24.60
2018-05-02T16:51:57.917Z,24.70
2018-05-02T16:54:26.192Z,25.10
2018-05-02T16:56:59.400Z,25.40
2018-05-02T16:59:27.134Z,25.40
2018-05-02T17:01:54.678Z,25.40
2018-05-02T17:04:22.214Z,25.30
2018-05-02T17:06:50.465Z,25.60
2018-05-02T17:09:18.683Z,25.50
2018-05-02T17:11:46.387Z,25.80
2018-05-02T17:14:14.087Z,25.90
2018-05-02T17:16:41.831Z,25.90
2018-05-02T17:19:10.091Z,26.10
2018-05-02T17:21:37.662Z,26.00
2018-05-02T17:50:25.340Z,26.90
2018-05-02T17:52:53.132Z,26.90
2018-05-02T17:55:21.339Z,27.10
2018-05-02T18:00:20.604Z,27.20
2018-05-02T18:07:53.167Z,27.20
2018-05-02T18:10:24.214Z,27.20
2018-05-02T18:15:23.659Z,27.00
2018-05-02T18:17:51.915Z,27.10
2018-05-02T18:22:53.686Z,27.20
2018-05-02T18:25:21.727Z,27.40
2018-05-02T18:30:26.185Z,27.50
2018-05-02T18:32:56.195Z,27.40
2018-05-02T18:40:31.900Z,27.00
2018-05-02T18:43:01.750Z,26.90
2018-05-02T18:45:31.139Z,26.80
2018-05-02T18:47:59.547Z,26.70
2018-05-02T18:50:28.457Z,26.70
2018-05-02T18:52:56.639Z,26.80
2018-05-02T18:55:34.814Z,26.80
2018-05-02T19:00:35.481Z,27.00
2018-05-02T19:03:04.305Z,27.00
2018-05-02T19:05:36.033Z,27.10
2018-05-02T19:08:07.086Z,27.10
2018-05-02T19:10:38.134Z,27.10
2018-05-02T19:15:46.867Z,27.40
2018-05-02T19:18:21.999Z,27.60
2018-05-02T19:20:49.787Z,27.70
2018-05-02T19:23:18.817Z,27.80
2018-05-02T19:26:03.672Z,27.80
2018-05-02T19:28:34.050Z,28.00
2018-05-02T19:31:08.771Z,28.10
2018-05-02T19:33:43.600Z,28.30
2018-05-02T19:36:16.313Z,28.40
2018-05-02T19:38:44.558Z,28.80
2018-05-02T19:41:18.935Z,28.70
2018-05-02T19:46:25.958Z,29.10
2018-05-02T19:48:55.075Z,29.30
2018-05-02T19:51:30.038Z,29.30
2018-05-02T19:53:58.371Z,29.40
2018-05-02T19:56:27.402Z,29.40
2018-05-02T19:58:54.881Z,29.20
2018-05-02T20:01:28.227Z,29.00
2018-05-02T20:06:29.214Z,29.00
2018-05-02T20:09:03.091Z,29.00
2018-05-02T20:11:37.017Z,28.90
2018-05-02T20:14:05.081Z,28.80
2018-05-02T20:16:32.802Z,28.60
2018-05-02T20:19:00.376Z,28.70
2018-05-02T20:21:28.364Z,28.70
2018-05-02T20:23:55.936Z,28.70
2018-05-02T20:26:23.584Z,28.70
2018-05-02T20:28:52.558Z,28.60
2018-05-02T20:31:20.456Z,28.80
2018-05-02T20:33:47.962Z,28.80
2018-05-02T20:36:19.444Z,28.80
2018-05-02T20:41:20.618Z,29.00
2018-05-02T20:43:51.785Z,29.20
2018-05-02T20:46:20.083Z,29.30
2018-05-02T20:48:47.843Z,29.30
2018-05-02T20:51:15.543Z,29.40
2018-05-02T20:53:43.318Z,29.50
2018-05-02T20:56:12.182Z,29.60
2018-05-02T20:58:39.663Z,29.70
2018-05-02T21:01:07.192Z,29.80
2018-05-02T21:06:09.199Z,29.90
2018-05-02T21:08:38.533Z,29.90
2018-05-02T21:16:15.749Z,30.00
2018-05-02T21:21:18.848Z,29.90
2018-05-02T21:23:47.241Z,30.00
2018-05-02T21:26:15.524Z,29.90
2018-05-02T21:28:47.171Z,30.00
2018-05-02T21:31:16.987Z,30.00
2018-05-02T21:33:44.610Z,30.90
2018-05-02T21:36:17.697Z,31.10
2018-05-02T21:38:46.856Z,30.40
2018-05-02T21:41:14.342Z,31.30
2018-05-02T21:46:17.889Z,31.50
2018-05-02T21:48:46.506Z,31.30
2018-05-02T21:51:14.004Z,31.50
2018-05-02T21:53:43.989Z,31.60
2018-05-02T21:56:11.479Z,31.60
2018-05-02T21:58:39.600Z,31.60
2018-05-02T22:01:07.863Z,32.00
2018-05-02T22:03:35.372Z,31.90
2018-05-02T22:06:03.086Z,31.20
2018-05-02T22:08:30.838Z,32.00
2018-05-02T22:10:58.544Z,32.20
2018-05-02T22:13:26.283Z,32.30
2018-05-02T22:15:53.790Z,32.40
2018-05-02T22:18:23.144Z,32.40
2018-05-02T22:20:51.417Z,32.80
2018-05-02T22:23:19.907Z,32.90
2018-05-02T22:25:48.273Z,32.90
2018-05-02T22:28:17.159Z,33.50
2018-05-02T22:30:44.972Z,32.80
2018-05-02T22:33:13.785Z,32.90
2018-05-02T22:35:42.285Z,32.90
2018-05-02T22:38:09.967Z,32.90
2018-05-02T22:40:38.231Z,33.00
2018-05-02T22:43:05.985Z,33.00
2018-05-02T22:45:33.667Z,33.00
2018-05-02T22:48:01.697Z,33.10
2018-05-02T22:50:29.460Z,33.10
2018-05-02T22:52:56.956Z,33.30
2018-05-02T22:55:25.504Z,33.30
2018-05-02T22:57:52.988Z,33.30
2018-05-02T23:00:22.291Z,33.10
2018-05-02T23:02:49.993Z,33.20
2018-05-02T23:05:17.539Z,33.00
2018-05-02T23:07:45.003Z,33.10
2018-05-02T23:10:12.553Z,33.10
2018-05-02T23:12:40.038Z,33.10
2018-05-02T23:15:07.787Z,33.00
2018-05-02T23:17:35.524Z,33.00
2018-05-02T23:20:03.282Z,32.80
2018-05-02T23:25:02.993Z,32.40
2018-05-02T23:27:30.572Z,32.20
2018-05-02T23:29:58.002Z,32.00
2018-05-02T23:32:25.709Z,31.80
2018-05-02T23:34:53.426Z,31.70
2018-05-02T23:37:21.182Z,31.50
2018-05-02T23:39:52.361Z,31.10
2018-05-02T23:42:20.823Z,30.70
2018-05-02T23:44:49.915Z,30.60
2018-05-02T23:47:32.327Z,30.50
2018-05-02T23:50:00.009Z,30.40
2018-05-02T23:52:28.269Z,30.40
2018-05-02T23:54:57.354Z,30.30
2018-05-02T23:57:30.075Z,30.30
2018-05-02T23:59:57.863Z,30.10
